sensor_id;sensor_type;location;lat;lon;timestamp;P1;durP1;ratioP1;P2;durP2;ratioP2
44722;SDS011;30451;48.638;10.624;2022-11-11T00:00:27;5.00;;;2.28;;
44722;SDS011;30451;48.638;10.624;2022-11-11T00:02:55;3.80;;;2.53;;
44722;SDS011;30451;48.638;10.624;2022-11-11T00:05:22;3.42;;;2.35;;
44722;SDS011;30451;48.638;10.624;2022-11-11T00:07:51;3.53;;;2.42;;
44722;SDS011;30451;48.638;10.624;2022-11-11T00:10:17;3.45;;;2.33;;
44722;SDS011;30451;48.638;10.624;2022-11-11T00:12:43;3.60;;;2.50;;
44722;SDS011;30451;48.638;10.624;2022-11-11T00:15:09;3.70;;;2.33;;
44722;SDS011;30451;48.638;10.624;2022-11-11T00:17:35;3.30;;;2.20;;
44722;SDS011;30451;48.638;10.624;2022-11-11T00:20:19;3.88;;;2.67;;
44722;SDS011;30451;48.638;10.624;2022-11-11T00:23:03;3.17;;;2.22;;
44722;SDS011;30451;48.638;10.624;2022-11-11T00:25:51;5.40;;;2.70;;
44722;SDS011;30451;48.638;10.624;2022-11-11T00:28:17;3.42;;;2.28;;
44722;SDS011;30451;48.638;10.624;2022-11-11T00:30:43;3.67;;;2.30;;
44722;SDS011;30451;48.638;10.624;2022-11-11T00:33:09;3.67;;;2.30;;
44722;SDS011;30451;48.638;10.624;2022-11-11T00:35:35;3.50;;;2.15;;
44722;SDS011;30451;48.638;10.624;2022-11-11T00:38:18;3.72;;;2.40;;
44722;SDS011;30451;48.638;10.624;2022-11-11T00:41:03;3.78;;;2.70;;
44722;SDS011;30451;48.638;10.624;2022-11-11T00:43:28;3.40;;;2.30;;
44722;SDS011;30451;48.638;10.624;2022-11-11T00:45:54;3.90;;;2.28;;
44722;SDS011;30451;48.638;10.624;2022-11-11T00:48:40;3.00;;;2.10;;
44722;SDS011;30451;48.638;10.624;2022-11-11T00:51:25;3.10;;;2.28;;
44722;SDS011;30451;48.638;10.624;2022-11-11T00:53:50;4.07;;;2.40;;
44722;SDS011;30451;48.638;10.624;2022-11-11T00:56:16;3.42;;;2.33;;
44722;SDS011;30451;48.638;10.624;2022-11-11T00:58:42;3.72;;;2.58;;
44722;SDS011;30451;48.638;10.624;2022-11-11T01:01:07;3.38;;;2.20;;
44722;SDS011;30451;48.638;10.624;2022-11-11T01:03:33;3.50;;;2.10;;
44722;SDS011;30451;48.638;10.624;2022-11-11T01:05:59;3.47;;;2.10;;
44722;SDS011;30451;48.638;10.624;2022-11-11T01:08:25;3.25;;;2.00;;
44722;SDS011;30451;48.638;10.624;2022-11-11T01:10:51;3.40;;;2.30;;
44722;SDS011;30451;48.638;10.624;2022-11-11T01:13:18;3.80;;;2.33;;
44722;SDS011;30451;48.638;10.624;2022-11-11T01:15:48;4.05;;;2.28;;
44722;SDS011;30451;48.638;10.624;2022-11-11T01:18:16;4.25;;;2.13;;
44722;SDS011;30451;48.638;10.624;2022-11-11T01:20:44;3.25;;;2.20;;
44722;SDS011;30451;48.638;10.624;2022-11-11T01:23:11;3.42;;;2.28;;
44722;SDS011;30451;48.638;10.624;2022-11-11T01:25:39;3.40;;;2.10;;
44722;SDS011;30451;48.638;10.624;2022-11-11T01:28:05;3.67;;;2.28;;
44722;SDS011;30451;48.638;10.624;2022-11-11T01:30:33;3.13;;;2.10;;
44722;SDS011;30451;48.638;10.624;2022-11-11T01:32:59;2.50;;;1.90;;
44722;SDS011;30451;48.638;10.624;2022-11-11T01:35:27;3.63;;;2.20;;
44722;SDS011;30451;48.638;10.624;2022-11-11T01:37:53;3.50;;;2.08;;
44722;SDS011;30451;48.638;10.624;2022-11-11T01:40:20;3.00;;;2.00;;
44722;SDS011;30451;48.638;10.624;2022-11-11T01:42:46;3.33;;;2.10;;
44722;SDS011;30451;48.638;10.624;2022-11-11T01:48:28;2.95;;;1.92;;
44722;SDS011;30451;48.638;10.624;2022-11-11T01:54:00;3.83;;;2.00;;
44722;SDS011;30451;48.638;10.624;2022-11-11T01:56:58;3.20;;;2.10;;
44722;SDS011;30451;48.638;10.624;2022-11-11T01:59:28;2.83;;;1.90;;
44722;SDS011;30451;48.638;10.624;2022-11-11T02:01:56;3.17;;;2.05;;
44722;SDS011;30451;48.638;10.624;2022-11-11T02:04:21;3.03;;;2.00;;
44722;SDS011;30451;48.638;10.624;2022-11-11T02:07:06;2.90;;;2.00;;
44722;SDS011;30451;48.638;10.624;2022-11-11T02:09:34;2.80;;;1.83;;
44722;SDS011;30451;48.638;10.624;2022-11-11T02:12:02;2.90;;;1.92;;
44722;SDS011;30451;48.638;10.624;2022-11-11T02:14:51;2.83;;;2.05;;
44722;SDS011;30451;48.638;10.624;2022-11-11T02:17:19;3.22;;;2.00;;
44722;SDS011;30451;48.638;10.624;2022-11-11T02:20:02;2.78;;;1.80;;
44722;SDS011;30451;48.638;10.624;2022-11-11T02:25:13;3.13;;;2.08;;
44722;SDS011;30451;48.638;10.624;2022-11-11T02:27:43;3.08;;;1.98;;
44722;SDS011;30451;48.638;10.624;2022-11-11T02:30:13;2.78;;;1.90;;
44722;SDS011;30451;48.638;10.624;2022-11-11T02:32:41;2.67;;;1.83;;
44722;SDS011;30451;48.638;10.624;2022-11-11T02:35:10;2.80;;;1.83;;
44722;SDS011;30451;48.638;10.624;2022-11-11T02:37:40;4.30;;;2.05;;
44722;SDS011;30451;48.638;10.624;2022-11-11T02:40:09;2.80;;;1.88;;
44722;SDS011;30451;48.638;10.624;2022-11-11T02:42:38;3.63;;;2.20;;
44722;SDS011;30451;48.638;10.624;2022-11-11T02:45:03;3.30;;;1.95;;
44722;SDS011;30451;48.638;10.624;2022-11-11T02:47:29;2.88;;;1.80;;
44722;SDS011;30451;48.638;10.624;2022-11-11T02:49:55;3.20;;;2.05;;
44722;SDS011;30451;48.638;10.624;2022-11-11T02:52:21;2.88;;;1.63;;
44722;SDS011;30451;48.638;10.624;2022-11-11T02:54:46;3.25;;;2.10;;
44722;SDS011;30451;48.638;10.624;2022-11-11T02:57:13;2.67;;;1.73;;
44722;SDS011;30451;48.638;10.624;2022-11-11T02:59:39;2.70;;;1.83;;
44722;SDS011;30451;48.638;10.624;2022-11-11T03:02:05;2.63;;;1.70;;
44722;SDS011;30451;48.638;10.624;2022-11-11T03:04:32;3.10;;;1.90;;
44722;SDS011;30451;48.638;10.624;2022-11-11T03:06:58;3.05;;;2.03;;
44722;SDS011;30451;48.638;10.624;2022-11-11T03:09:24;2.80;;;1.70;;
44722;SDS011;30451;48.638;10.624;2022-11-11T03:11:50;2.80;;;1.77;;
44722;SDS011;30451;48.638;10.624;2022-11-11T03:14:15;2.65;;;1.70;;
44722;SDS011;30451;48.638;10.624;2022-11-11T03:16:41;2.42;;;1.60;;
44722;SDS011;30451;48.638;10.624;2022-11-11T03:19:25;2.50;;;1.50;;
44722;SDS011;30451;48.638;10.624;2022-11-11T03:21:51;2.33;;;1.73;;
44722;SDS011;30451;48.638;10.624;2022-11-11T03:24:17;2.15;;;1.60;;
44722;SDS011;30451;48.638;10.624;2022-11-11T03:26:42;2.65;;;1.85;;
44722;SDS011;30451;48.638;10.624;2022-11-11T03:29:08;2.83;;;2.00;;
44722;SDS011;30451;48.638;10.624;2022-11-11T03:31:33;2.63;;;1.75;;
44722;SDS011;30451;48.638;10.624;2022-11-11T03:33:59;2.38;;;1.63;;
44722;SDS011;30451;48.638;10.624;2022-11-11T03:36:42;2.72;;;1.65;;
44722;SDS011;30451;48.638;10.624;2022-11-11T03:39:27;2.88;;;1.85;;
44722;SDS011;30451;48.638;10.624;2022-11-11T03:41:53;2.13;;;1.55;;
44722;SDS011;30451;48.638;10.624;2022-11-11T03:44:18;2.33;;;1.70;;
44722;SDS011;30451;48.638;10.624;2022-11-11T03:46:44;2.78;;;1.80;;
44722;SDS011;30451;48.638;10.624;2022-11-11T03:49:09;2.10;;;1.45;;
44722;SDS011;30451;48.638;10.624;2022-11-11T03:51:35;2.83;;;1.70;;
44722;SDS011;30451;48.638;10.624;2022-11-11T03:54:01;2.38;;;1.60;;
44722;SDS011;30451;48.638;10.624;2022-11-11T03:56:26;2.28;;;1.52;;
44722;SDS011;30451;48.638;10.624;2022-11-11T03:58:52;2.50;;;1.70;;
44722;SDS011;30451;48.638;10.624;2022-11-11T04:01:17;2.20;;;1.40;;
44722;SDS011;30451;48.638;10.624;2022-11-11T04:04:02;2.75;;;1.60;;
44722;SDS011;30451;48.638;10.624;2022-11-11T04:06:46;2.33;;;1.42;;
44722;SDS011;30451;48.638;10.624;2022-11-11T04:09:30;2.63;;;1.67;;
44722;SDS011;30451;48.638;10.624;2022-11-11T04:12:14;2.30;;;1.50;;
44722;SDS011;30451;48.638;10.624;2022-11-11T04:14:40;2.70;;;1.77;;
44722;SDS011;30451;48.638;10.624;2022-11-11T04:17:24;2.50;;;1.60;;
44722;SDS011;30451;48.638;10.624;2022-11-11T04:19:50;2.08;;;1.40;;
44722;SDS011;30451;48.638;10.624;2022-11-11T04:22:38;2.60;;;1.60;;
44722;SDS011;30451;48.638;10.624;2022-11-11T04:25:05;2.10;;;1.50;;
44722;SDS011;30451;48.638;10.624;2022-11-11T04:27:50;2.72;;;1.77;;
44722;SDS011;30451;48.638;10.624;2022-11-11T04:30:35;2.75;;;1.70;;
44722;SDS011;30451;48.638;10.624;2022-11-11T04:33:01;2.42;;;1.70;;
44722;SDS011;30451;48.638;10.624;2022-11-11T04:35:26;2.60;;;1.40;;
44722;SDS011;30451;48.638;10.624;2022-11-11T04:37:52;2.30;;;1.48;;
44722;SDS011;30451;48.638;10.624;2022-11-11T04:40:37;2.58;;;1.70;;
44722;SDS011;30451;48.638;10.624;2022-11-11T04:43:21;2.08;;;1.38;;
44722;SDS011;30451;48.638;10.624;2022-11-11T04:45:47;2.17;;;1.45;;
44722;SDS011;30451;48.638;10.624;2022-11-11T04:48:13;2.22;;;1.58;;
44722;SDS011;30451;48.638;10.624;2022-11-11T04:50:41;2.50;;;1.80;;
44722;SDS011;30451;48.638;10.624;2022-11-11T04:53:12;2.50;;;1.60;;
44722;SDS011;30451;48.638;10.624;2022-11-11T04:55:39;2.90;;;1.70;;
44722;SDS011;30451;48.638;10.624;2022-11-11T04:58:26;2.78;;;1.70;;
44722;SDS011;30451;48.638;10.624;2022-11-11T05:00:57;1.98;;;1.40;;
44722;SDS011;30451;48.638;10.624;2022-11-11T05:03:23;2.72;;;1.73;;
44722;SDS011;30451;48.638;10.624;2022-11-11T05:08:39;2.25;;;1.60;;
44722;SDS011;30451;48.638;10.624;2022-11-11T05:11:29;3.00;;;1.80;;
44722;SDS011;30451;48.638;10.624;2022-11-11T05:13:58;2.45;;;1.60;;
44722;SDS011;30451;48.638;10.624;2022-11-11T05:19:31;2.83;;;1.80;;
44722;SDS011;30451;48.638;10.624;2022-11-11T05:24:48;2.50;;;1.50;;
44722;SDS011;30451;48.638;10.624;2022-11-11T05:27:32;2.53;;;1.58;;
44722;SDS011;30451;48.638;10.624;2022-11-11T05:29:57;2.63;;;1.80;;
44722;SDS011;30451;48.638;10.624;2022-11-11T05:32:23;2.00;;;1.50;;
44722;SDS011;30451;48.638;10.624;2022-11-11T05:34:50;2.13;;;1.50;;
44722;SDS011;30451;48.638;10.624;2022-11-11T05:37:16;1.98;;;1.40;;
44722;SDS011;30451;48.638;10.624;2022-11-11T05:39:42;2.60;;;1.63;;
44722;SDS011;30451;48.638;10.624;2022-11-11T05:42:08;2.40;;;1.60;;
44722;SDS011;30451;48.638;10.624;2022-11-11T05:44:34;2.67;;;1.67;;
44722;SDS011;30451;48.638;10.624;2022-11-11T05:47:00;2.40;;;1.60;;
44722;SDS011;30451;48.638;10.624;2022-11-11T05:49:26;2.58;;;1.70;;
44722;SDS011;30451;48.638;10.624;2022-11-11T05:51:52;2.20;;;1.40;;
44722;SDS011;30451;48.638;10.624;2022-11-11T05:54:19;2.38;;;1.50;;
44722;SDS011;30451;48.638;10.624;2022-11-11T05:56:45;2.50;;;1.70;;
44722;SDS011;30451;48.638;10.624;2022-11-11T05:59:11;2.30;;;1.60;;
44722;SDS011;30451;48.638;10.624;2022-11-11T06:01:37;2.53;;;1.70;;
44722;SDS011;30451;48.638;10.624;2022-11-11T06:04:03;2.20;;;1.50;;
44722;SDS011;30451;48.638;10.624;2022-11-11T06:06:30;2.38;;;1.63;;
44722;SDS011;30451;48.638;10.624;2022-11-11T06:08:56;2.88;;;1.60;;
44722;SDS011;30451;48.638;10.624;2022-11-11T06:11:22;2.60;;;1.50;;
44722;SDS011;30451;48.638;10.624;2022-11-11T06:13:48;2.35;;;1.52;;
44722;SDS011;30451;48.638;10.624;2022-11-11T06:16:14;2.17;;;1.40;;
44722;SDS011;30451;48.638;10.624;2022-11-11T06:18:40;2.30;;;1.55;;
44722;SDS011;30451;48.638;10.624;2022-11-11T06:21:06;2.00;;;1.30;;
44722;SDS011;30451;48.638;10.624;2022-11-11T06:23:32;2.25;;;1.40;;
44722;SDS011;30451;48.638;10.624;2022-11-11T06:25:58;2.33;;;1.55;;
44722;SDS011;30451;48.638;10.624;2022-11-11T06:28:46;2.20;;;1.30;;
44722;SDS011;30451;48.638;10.624;2022-11-11T06:31:23;2.90;;;1.70;;
44722;SDS011;30451;48.638;10.624;2022-11-11T06:33:50;2.80;;;1.73;;
44722;SDS011;30451;48.638;10.624;2022-11-11T06:36:16;2.40;;;1.55;;
44722;SDS011;30451;48.638;10.624;2022-11-11T06:38:43;2.25;;;1.40;;
44722;SDS011;30451;48.638;10.624;2022-11-11T06:41:09;3.08;;;1.73;;
44722;SDS011;30451;48.638;10.624;2022-11-11T06:43:39;1.60;;;1.20;;
44722;SDS011;30451;48.638;10.624;2022-11-11T06:46:06;2.60;;;1.50;;
44722;SDS011;30451;48.638;10.624;2022-11-11T06:48:37;2.38;;;1.73;;
44722;SDS011;30451;48.638;10.624;2022-11-11T06:51:06;2.50;;;1.50;;
44722;SDS011;30451;48.638;10.624;2022-11-11T06:53:32;2.85;;;1.60;;
44722;SDS011;30451;48.638;10.624;2022-11-11T06:55:57;2.30;;;1.50;;
44722;SDS011;30451;48.638;10.624;2022-11-11T06:58:23;2.60;;;1.80;;
44722;SDS011;30451;48.638;10.624;2022-11-11T07:00:49;2.45;;;1.65;;
44722;SDS011;30451;48.638;10.624;2022-11-11T07:03:16;2.58;;;1.60;;
44722;SDS011;30451;48.638;10.624;2022-11-11T07:05:43;2.28;;;1.60;;
44722;SDS011;30451;48.638;10.624;2022-11-11T07:08:10;2.92;;;1.67;;
44722;SDS011;30451;48.638;10.624;2022-11-11T07:10:42;1.92;;;1.40;;
44722;SDS011;30451;48.638;10.624;2022-11-11T07:13:09;3.17;;;1.75;;
44722;SDS011;30451;48.638;10.624;2022-11-11T07:15:36;2.47;;;1.50;;
44722;SDS011;30451;48.638;10.624;2022-11-11T07:18:02;2.90;;;1.60;;
44722;SDS011;30451;48.638;10.624;2022-11-11T07:20:28;2.33;;;1.48;;
44722;SDS011;30451;48.638;10.624;2022-11-11T07:22:54;2.75;;;1.60;;
44722;SDS011;30451;48.638;10.624;2022-11-11T07:25:19;2.80;;;1.70;;
44722;SDS011;30451;48.638;10.624;2022-11-11T07:27:45;2.72;;;1.50;;
44722;SDS011;30451;48.638;10.624;2022-11-11T07:30:11;2.45;;;1.70;;
44722;SDS011;30451;48.638;10.624;2022-11-11T07:32:43;1.90;;;1.27;;
44722;SDS011;30451;48.638;10.624;2022-11-11T07:35:12;2.50;;;1.30;;
44722;SDS011;30451;48.638;10.624;2022-11-11T07:37:39;2.13;;;1.45;;
44722;SDS011;30451;48.638;10.624;2022-11-11T07:40:05;2.45;;;1.40;;
44722;SDS011;30451;48.638;10.624;2022-11-11T07:42:34;2.00;;;1.35;;
44722;SDS011;30451;48.638;10.624;2022-11-11T07:47:26;1.58;;;1.10;;
44722;SDS011;30451;48.638;10.624;2022-11-11T07:49:52;1.90;;;1.13;;
44722;SDS011;30451;48.638;10.624;2022-11-11T07:52:18;1.17;;;1.00;;
44722;SDS011;30451;48.638;10.624;2022-11-11T07:54:43;1.80;;;1.20;;
44722;SDS011;30451;48.638;10.624;2022-11-11T07:57:09;1.75;;;1.10;;
44722;SDS011;30451;48.638;10.624;2022-11-11T07:59:34;2.17;;;1.17;;
44722;SDS011;30451;48.638;10.624;2022-11-11T08:02:00;1.30;;;1.00;;
44722;SDS011;30451;48.638;10.624;2022-11-11T08:04:25;1.33;;;0.93;;
44722;SDS011;30451;48.638;10.624;2022-11-11T08:06:51;1.60;;;1.00;;
44722;SDS011;30451;48.638;10.624;2022-11-11T08:09:17;1.77;;;0.95;;
44722;SDS011;30451;48.638;10.624;2022-11-11T08:11:42;1.70;;;1.00;;
44722;SDS011;30451;48.638;10.624;2022-11-11T08:14:26;1.48;;;1.10;;
44722;SDS011;30451;48.638;10.624;2022-11-11T08:16:52;1.83;;;1.00;;
44722;SDS011;30451;48.638;10.624;2022-11-11T08:19:17;1.50;;;1.10;;
44722;SDS011;30451;48.638;10.624;2022-11-11T08:21:43;1.08;;;0.90;;
44722;SDS011;30451;48.638;10.624;2022-11-11T08:24:09;1.60;;;1.10;;
44722;SDS011;30451;48.638;10.624;2022-11-11T08:26:35;1.30;;;1.00;;
44722;SDS011;30451;48.638;10.624;2022-11-11T08:29:01;1.40;;;1.10;;
44722;SDS011;30451;48.638;10.624;2022-11-11T08:31:27;1.45;;;1.00;;
44722;SDS011;30451;48.638;10.624;2022-11-11T08:33:52;1.75;;;1.15;;
44722;SDS011;30451;48.638;10.624;2022-11-11T08:36:18;1.50;;;1.08;;
44722;SDS011;30451;48.638;10.624;2022-11-11T08:38:44;1.23;;;1.00;;
44722;SDS011;30451;48.638;10.624;2022-11-11T08:41:09;2.55;;;1.00;;
44722;SDS011;30451;48.638;10.624;2022-11-11T08:43:35;1.35;;;0.93;;
44722;SDS011;30451;48.638;10.624;2022-11-11T08:46:01;2.00;;;1.00;;
44722;SDS011;30451;48.638;10.624;2022-11-11T08:48:31;1.33;;;0.90;;
44722;SDS011;30451;48.638;10.624;2022-11-11T08:50:57;2.25;;;0.90;;
44722;SDS011;30451;48.638;10.624;2022-11-11T08:53:23;1.60;;;0.90;;
44722;SDS011;30451;48.638;10.624;2022-11-11T08:55:50;1.50;;;1.00;;
44722;SDS011;30451;48.638;10.624;2022-11-11T08:58:15;1.50;;;1.00;;
44722;SDS011;30451;48.638;10.624;2022-11-11T09:00:41;1.33;;;0.82;;
44722;SDS011;30451;48.638;10.624;2022-11-11T09:03:08;2.33;;;1.08;;
44722;SDS011;30451;48.638;10.624;2022-11-11T09:05:38;1.58;;;1.10;;
44722;SDS011;30451;48.638;10.624;2022-11-11T09:08:05;2.15;;;1.00;;
44722;SDS011;30451;48.638;10.624;2022-11-11T09:10:32;1.10;;;0.90;;
44722;SDS011;30451;48.638;10.624;2022-11-11T09:12:58;1.52;;;1.08;;
44722;SDS011;30451;48.638;10.624;2022-11-11T09:15:25;1.38;;;0.90;;
44722;SDS011;30451;48.638;10.624;2022-11-11T09:17:51;1.25;;;0.93;;
44722;SDS011;30451;48.638;10.624;2022-11-11T09:20:17;1.23;;;0.90;;
44722;SDS011;30451;48.638;10.624;2022-11-11T09:22:46;1.13;;;0.80;;
44722;SDS011;30451;48.638;10.624;2022-11-11T09:25:13;0.98;;;0.85;;
44722;SDS011;30451;48.638;10.624;2022-11-11T09:27:40;1.52;;;1.05;;
44722;SDS011;30451;48.638;10.624;2022-11-11T09:30:06;1.63;;;1.10;;
44722;SDS011;30451;48.638;10.624;2022-11-11T09:32:33;1.20;;;0.90;;
44722;SDS011;30451;48.638;10.624;2022-11-11T09:34:58;1.85;;;1.00;;
44722;SDS011;30451;48.638;10.624;2022-11-11T09:37:25;1.33;;;0.88;;
44722;SDS011;30451;48.638;10.624;2022-11-11T09:39:51;1.75;;;1.05;;
44722;SDS011;30451;48.638;10.624;2022-11-11T09:43:02;1.08;;;0.80;;
44722;SDS011;30451;48.638;10.624;2022-11-11T09:45:13;1.55;;;0.95;;
44722;SDS011;30451;48.638;10.624;2022-11-11T09:50:25;1.40;;;1.00;;
44722;SDS011;30451;48.638;10.624;2022-11-11T09:52:57;1.48;;;1.00;;
44722;SDS011;30451;48.638;10.624;2022-11-11T09:55:44;1.30;;;1.00;;
44722;SDS011;30451;48.638;10.624;2022-11-11T10:00:56;1.00;;;0.80;;
44722;SDS011;30451;48.638;10.624;2022-11-11T10:03:29;1.20;;;0.90;;
44722;SDS011;30451;48.638;10.624;2022-11-11T10:06:04;1.45;;;0.90;;
44722;SDS011;30451;48.638;10.624;2022-11-11T10:08:58;0.80;;;0.75;;
44722;SDS011;30451;48.638;10.624;2022-11-11T10:14:38;1.00;;;0.77;;
44722;SDS011;30451;48.638;10.624;2022-11-11T10:22:29;1.42;;;0.90;;
44722;SDS011;30451;48.638;10.624;2022-11-11T10:27:36;1.40;;;0.80;;
44722;SDS011;30451;48.638;10.624;2022-11-11T10:35:25;0.93;;;0.70;;
44722;SDS011;30451;48.638;10.624;2022-11-11T10:38:04;1.43;;;1.00;;
44722;SDS011;30451;48.638;10.624;2022-11-11T10:40:55;1.17;;;0.90;;
44722;SDS011;30451;48.638;10.624;2022-11-11T10:43:28;0.98;;;0.80;;
44722;SDS011;30451;48.638;10.624;2022-11-11T10:48:32;1.00;;;0.75;;
44722;SDS011;30451;48.638;10.624;2022-11-11T10:50:59;0.93;;;0.75;;
44722;SDS011;30451;48.638;10.624;2022-11-11T10:58:40;1.80;;;1.20;;
44722;SDS011;30451;48.638;10.624;2022-11-11T11:01:13;2.13;;;1.25;;
44722;SDS011;30451;48.638;10.624;2022-11-11T11:03:46;2.03;;;1.30;;
44722;SDS011;30451;48.638;10.624;2022-11-11T11:06:20;2.38;;;1.15;;
44722;SDS011;30451;48.638;10.624;2022-11-11T11:09:01;2.05;;;1.20;;
44722;SDS011;30451;48.638;10.624;2022-11-11T11:12:06;1.63;;;1.00;;
44722;SDS011;30451;48.638;10.624;2022-11-11T11:14:33;1.83;;;1.30;;
44722;SDS011;30451;48.638;10.624;2022-11-11T11:17:07;3.20;;;1.55;;
44722;SDS011;30451;48.638;10.624;2022-11-11T11:19:38;3.05;;;1.90;;
44722;SDS011;30451;48.638;10.624;2022-11-11T11:22:04;4.03;;;2.30;;
44722;SDS011;30451;48.638;10.624;2022-11-11T11:24:33;3.85;;;2.38;;
44722;SDS011;30451;48.638;10.624;2022-11-11T11:27:07;5.25;;;3.05;;
44722;SDS011;30451;48.638;10.624;2022-11-11T11:32:11;5.53;;;3.38;;
44722;SDS011;30451;48.638;10.624;2022-11-11T11:37:08;6.88;;;4.10;;
44722;SDS011;30451;48.638;10.624;2022-11-11T11:39:34;6.82;;;4.22;;
44722;SDS011;30451;48.638;10.624;2022-11-11T11:42:02;6.45;;;4.35;;
44722;SDS011;30451;48.638;10.624;2022-11-11T11:44:32;8.38;;;4.50;;
44722;SDS011;30451;48.638;10.624;2022-11-11T11:52:34;8.25;;;4.70;;
44722;SDS011;30451;48.638;10.624;2022-11-11T11:55:16;7.68;;;4.32;;
44722;SDS011;30451;48.638;10.624;2022-11-11T11:57:52;7.65;;;4.50;;
44722;SDS011;30451;48.638;10.624;2022-11-11T12:00:30;9.60;;;4.90;;
44722;SDS011;30451;48.638;10.624;2022-11-11T12:03:16;8.65;;;4.88;;
44722;SDS011;30451;48.638;10.624;2022-11-11T12:11:17;6.65;;;4.28;;
44722;SDS011;30451;48.638;10.624;2022-11-11T12:27:13;19.77;;;11.73;;
44722;SDS011;30451;48.638;10.624;2022-11-11T12:43:26;32.45;;;20.33;;
44722;SDS011;30451;48.638;10.624;2022-11-11T12:57:37;32.45;;;20.65;;
44722;SDS011;30451;48.638;10.624;2022-11-11T13:10:32;30.70;;;20.05;;
44722;SDS011;30451;48.638;10.624;2022-11-11T13:15:49;27.98;;;19.80;;
44722;SDS011;30451;48.638;10.624;2022-11-11T13:18:18;26.88;;;18.73;;
44722;SDS011;30451;48.638;10.624;2022-11-11T13:21:02;27.80;;;17.17;;
44722;SDS011;30451;48.638;10.624;2022-11-11T13:23:30;27.35;;;16.98;;
44722;SDS011;30451;48.638;10.624;2022-11-11T13:25:57;23.35;;;16.77;;
44722;SDS011;30451;48.638;10.624;2022-11-11T13:28:28;28.75;;;18.38;;
44722;SDS011;30451;48.638;10.624;2022-11-11T13:31:13;28.13;;;18.55;;
44722;SDS011;30451;48.638;10.624;2022-11-11T13:33:56;29.67;;;18.73;;
44722;SDS011;30451;48.638;10.624;2022-11-11T13:36:26;27.67;;;19.50;;
44722;SDS011;30451;48.638;10.624;2022-11-11T13:39:02;28.15;;;18.90;;
44722;SDS011;30451;48.638;10.624;2022-11-11T13:41:30;26.75;;;18.13;;
44722;SDS011;30451;48.638;10.624;2022-11-11T13:49:04;28.98;;;19.73;;
44722;SDS011;30451;48.638;10.624;2022-11-11T13:54:04;29.10;;;18.60;;
44722;SDS011;30451;48.638;10.624;2022-11-11T13:56:48;29.25;;;19.42;;
44722;SDS011;30451;48.638;10.624;2022-11-11T14:02:11;28.40;;;19.23;;
44722;SDS011;30451;48.638;10.624;2022-11-11T14:08:05;27.40;;;18.65;;
44722;SDS011;30451;48.638;10.624;2022-11-11T14:12:50;28.00;;;19.10;;
44722;SDS011;30451;48.638;10.624;2022-11-11T14:15:34;27.70;;;18.23;;
44722;SDS011;30451;48.638;10.624;2022-11-11T14:28:36;24.52;;;16.63;;
44722;SDS011;30451;48.638;10.624;2022-11-11T14:47:47;26.83;;;17.95;;
44722;SDS011;30451;48.638;10.624;2022-11-11T14:50:56;25.48;;;17.00;;
44722;SDS011;30451;48.638;10.624;2022-11-11T14:53:16;25.77;;;17.77;;
44722;SDS011;30451;48.638;10.624;2022-11-11T14:55:49;24.48;;;17.13;;
44722;SDS011;30451;48.638;10.624;2022-11-11T14:58:17;24.05;;;17.15;;
44722;SDS011;30451;48.638;10.624;2022-11-11T15:06:10;22.25;;;16.00;;
44722;SDS011;30451;48.638;10.624;2022-11-11T15:09:29;23.88;;;16.63;;
44722;SDS011;30451;48.638;10.624;2022-11-11T15:17:04;22.73;;;15.63;;
44722;SDS011;30451;48.638;10.624;2022-11-11T15:24:58;21.73;;;15.82;;
44722;SDS011;30451;48.638;10.624;2022-11-11T15:27:35;22.42;;;15.68;;
44722;SDS011;30451;48.638;10.624;2022-11-11T15:30:13;22.77;;;15.40;;
44722;SDS011;30451;48.638;10.624;2022-11-11T15:38:34;21.15;;;14.45;;
44722;SDS011;30451;48.638;10.624;2022-11-11T15:41:00;22.33;;;15.27;;
44722;SDS011;30451;48.638;10.624;2022-11-11T15:43:27;21.02;;;14.38;;
44722;SDS011;30451;48.638;10.624;2022-11-11T15:48:29;22.27;;;14.57;;
44722;SDS011;30451;48.638;10.624;2022-11-11T15:51:45;21.02;;;14.57;;
44722;SDS011;30451;48.638;10.624;2022-11-11T15:53:46;20.77;;;14.40;;
44722;SDS011;30451;48.638;10.624;2022-11-11T15:56:25;21.40;;;14.57;;
44722;SDS011;30451;48.638;10.624;2022-11-11T15:58:56;20.83;;;14.70;;
44722;SDS011;30451;48.638;10.624;2022-11-11T16:01:24;21.95;;;15.15;;
44722;SDS011;30451;48.638;10.624;2022-11-11T16:03:53;19.55;;;13.98;;
44722;SDS011;30451;48.638;10.624;2022-11-11T16:06:19;19.85;;;14.45;;
44722;SDS011;30451;48.638;10.624;2022-11-11T16:08:49;19.02;;;14.50;;
44722;SDS011;30451;48.638;10.624;2022-11-11T16:11:17;19.73;;;14.07;;
44722;SDS011;30451;48.638;10.624;2022-11-11T16:13:48;19.58;;;14.13;;
44722;SDS011;30451;48.638;10.624;2022-11-11T16:16:23;18.90;;;13.93;;
44722;SDS011;30451;48.638;10.624;2022-11-11T16:19:00;20.25;;;14.23;;
44722;SDS011;30451;48.638;10.624;2022-11-11T16:24:18;19.10;;;13.32;;
44722;SDS011;30451;48.638;10.624;2022-11-11T16:26:55;20.17;;;14.18;;
44722;SDS011;30451;48.638;10.624;2022-11-11T16:29:22;18.83;;;13.82;;
44722;SDS011;30451;48.638;10.624;2022-11-11T16:31:54;17.15;;;13.15;;
44722;SDS011;30451;48.638;10.624;2022-11-11T16:34:29;19.02;;;13.60;;
44722;SDS011;30451;48.638;10.624;2022-11-11T16:37:01;18.92;;;13.23;;
44722;SDS011;30451;48.638;10.624;2022-11-11T16:39:27;17.98;;;12.50;;
44722;SDS011;30451;48.638;10.624;2022-11-11T16:41:54;17.50;;;12.85;;
44722;SDS011;30451;48.638;10.624;2022-11-11T16:44:27;18.67;;;12.55;;
44722;SDS011;30451;48.638;10.624;2022-11-11T16:46:59;17.83;;;12.95;;
44722;SDS011;30451;48.638;10.624;2022-11-11T16:52:06;17.48;;;12.27;;
44722;SDS011;30451;48.638;10.624;2022-11-11T16:54:37;18.17;;;12.27;;
44722;SDS011;30451;48.638;10.624;2022-11-11T16:57:11;14.82;;;11.50;;
44722;SDS011;30451;48.638;10.624;2022-11-11T16:59:46;16.67;;;11.77;;
44722;SDS011;30451;48.638;10.624;2022-11-11T17:02:19;15.80;;;11.13;;
44722;SDS011;30451;48.638;10.624;2022-11-11T17:07:31;17.15;;;12.20;;
44722;SDS011;30451;48.638;10.624;2022-11-11T17:12:36;17.00;;;11.88;;
44722;SDS011;30451;48.638;10.624;2022-11-11T17:15:06;16.77;;;12.27;;
44722;SDS011;30451;48.638;10.624;2022-11-11T17:17:33;21.75;;;15.15;;
44722;SDS011;30451;48.638;10.624;2022-11-11T17:20:00;24.73;;;16.65;;
44722;SDS011;30451;48.638;10.624;2022-11-11T17:22:31;20.40;;;16.00;;
44722;SDS011;30451;48.638;10.624;2022-11-11T17:24:57;20.85;;;15.18;;
44722;SDS011;30451;48.638;10.624;2022-11-11T17:27:22;22.63;;;16.27;;
44722;SDS011;30451;48.638;10.624;2022-11-11T17:29:48;23.45;;;17.05;;
44722;SDS011;30451;48.638;10.624;2022-11-11T17:32:13;23.42;;;17.35;;
44722;SDS011;30451;48.638;10.624;2022-11-11T17:34:39;23.70;;;17.80;;
44722;SDS011;30451;48.638;10.624;2022-11-11T17:37:04;23.42;;;18.60;;
44722;SDS011;30451;48.638;10.624;2022-11-11T17:39:30;22.92;;;18.75;;
44722;SDS011;30451;48.638;10.624;2022-11-11T17:41:56;24.15;;;18.10;;
44722;SDS011;30451;48.638;10.624;2022-11-11T17:44:21;22.70;;;17.70;;
44722;SDS011;30451;48.638;10.624;2022-11-11T17:46:47;23.58;;;18.65;;
44722;SDS011;30451;48.638;10.624;2022-11-11T17:49:13;24.25;;;18.75;;
44722;SDS011;30451;48.638;10.624;2022-11-11T17:51:40;24.23;;;19.20;;
44722;SDS011;30451;48.638;10.624;2022-11-11T17:54:06;24.08;;;19.63;;
44722;SDS011;30451;48.638;10.624;2022-11-11T17:56:33;25.52;;;20.33;;
44722;SDS011;30451;48.638;10.624;2022-11-11T17:58:59;24.92;;;19.70;;
44722;SDS011;30451;48.638;10.624;2022-11-11T18:01:25;25.40;;;19.88;;